Time;durP1;ratioP1;P1;durP2;ratioP2;P2;SDS_P1;SDS_P2;PMS_P1;PMS_P2;Temp;Humidity;BMP_temperature;BMP_pressure;BME280_temperature;BME280_humidity;BME280_pressure;Samples;Min_cycle;Max_cycle;Signal;HPM_P1;HPM_P2
2021/10/26 00:00:37;;;;;;;24.18;14.03;;;;;;;12.64;45.13;100625.82;2375992;83;25841;-77
2021/10/26 00:03:58;;;;;;;30.35;14.95;;;;;;;12.62;45.16;100622.31;2376258;83;25698;-77
2021/10/26 00:07:19;;;;;;;27.10;14.95;;;;;;;12.62;45.19;100622.31;2376406;83;30818;-76
2021/10/26 00:10:40;;;;;;;26.23;14.28;;;;;;;12.59;45.18;100618.33;2375862;81;30809;-76
2021/10/26 00:14:01;;;;;;;23.98;13.90;;;;;;;12.57;45.25;100623.95;2376150;83;25752;-75
2021/10/26 00:17:22;;;;;;;23.10;14.33;;;;;;;12.57;45.26;100616.53;2375918;82;25922;-78
2021/10/26 00:20:44;;;;;;;26.60;14.50;;;;;;;12.55;45.28;100614.30;2376257;83;25878;-78
2021/10/26 00:24:06;;;;;;;22.37;14.63;;;;;;;12.52;45.31;100601.64;2376184;83;25660;-78
2021/10/26 00:27:28;;;;;;;24.72;14.35;;;;;;;12.51;45.34;100607.70;2376199;82;25817;-78
2021/10/26 00:30:48;;;;;;;23.00;13.95;;;;;;;12.49;45.36;100610.73;2375939;83;25608;-78
2021/10/26 00:34:11;;;;;;;24.65;14.20;;;;;;;12.47;45.38;100608.50;2373159;83;25688;-75
2021/10/26 00:37:38;;;;;;;25.82;14.70;;;;;;;12.47;45.42;100603.27;2374830;83;25660;-77
2021/10/26 00:41:34;;;;;;;27.70;14.00;;;;;;;12.45;45.42;100608.91;2371377;82;25657;-76
2021/10/26 00:44:54;;;;;;;;;;;;;;;12.44;45.45;100605.82;2377938;83;25608;-78
2021/10/26 00:48:15;;;;;;;27.03;14.57;;;;;;;12.43;45.46;100608.42;2374562;83;30913;-78
2021/10/26 00:51:39;;;;;;;23.73;13.65;;;;;;;12.39;45.48;100604.87;2375950;83;25778;-78
2021/10/26 00:55:00;;;;;;;27.32;14.28;;;;;;;12.39;45.53;100602.69;2376145;83;25660;-78
2021/10/26 00:58:21;;;;;;;26.50;13.22;;;;;;;12.36;45.57;100609.16;2376217;82;26398;-78
2021/10/26 01:01:43;;;;;;;25.95;12.63;;;;;;;12.34;45.57;100609.11;2375894;83;25181;-77
2021/10/26 01:05:06;;;;;;;24.50;12.88;;;;;;;12.33;45.55;100603.86;2355050;82;25673;-76
2021/10/26 01:08:28;;;;;;;22.45;13.88;;;;;;;12.33;45.62;100603.86;2355478;83;25705;-77
2021/10/26 01:11:49;;;;;;;22.87;14.25;;;;;;;12.30;45.65;100599.45;2355250;82;25614;-78
2021/10/26 01:15:10;;;;;;;23.30;13.90;;;;;;;12.29;45.70;100593.77;2376330;83;30511;-78
2021/10/26 01:18:31;;;;;;;22.85;13.65;;;;;;;12.28;45.69;100596.81;2375419;83;25679;-77
2021/10/26 01:21:55;;;;;;;23.42;13.20;;;;;;;12.27;45.71;100595.45;2375924;83;25724;-77
2021/10/26 01:25:16;;;;;;;20.52;13.38;;;;;;;12.25;45.74;100598.45;2374965;82;25779;-77
2021/10/26 01:28:39;;;;;;;24.30;12.93;;;;;;;12.23;45.78;100589.29;2375513;82;25171;-77
2021/10/26 01:32:05;;;;;;;21.60;12.33;;;;;;;12.23;45.78;100593.64;2376032;83;26233;-78
2021/10/26 01:35:32;;;;;;;23.50;12.05;;;;;;;12.21;45.79;100589.67;2375617;82;25644;-77
2021/10/26 01:38:53;;;;;;;24.40;12.75;;;;;;;12.21;45.86;100585.75;2355700;82;25916;-76
2021/10/26 01:42:14;;;;;;;19.42;11.93;;;;;;;12.19;45.85;100587.47;2375968;81;31277;-77
2021/10/26 01:45:36;;;;;;;20.25;11.90;;;;;;;12.18;45.86;100584.41;2374654;82;25656;-76
2021/10/26 01:48:59;;;;;;;21.90;12.20;;;;;;;12.16;45.93;100582.18;2373149;81;25502;-76
2021/10/26 01:52:20;;;;;;;18.45;11.80;;;;;;;12.15;45.92;100586.96;2375934;81;25679;-77
2021/10/26 01:55:41;;;;;;;23.40;11.93;;;;;;;12.14;45.94;100582.56;2376431;83;30797;-78
2021/10/26 01:59:03;;;;;;;23.50;11.85;;;;;;;12.12;45.95;100584.28;2371643;82;25668;-77
2021/10/26 02:02:38;;;;;;;22.10;10.93;;;;;;;12.11;45.98;100585.54;2362187;82;25664;-78
2021/10/26 02:06:04;;;;;;;25.30;12.18;;;;;;;12.08;46.01;100580.25;2362399;83;25655;-79
2021/10/26 02:09:25;;;;;;;26.07;13.05;;;;;;;12.07;46.01;100582.41;2362843;82;25836;-78
2021/10/26 02:12:46;;;;;;;19.15;11.00;;;;;;;12.06;46.02;100586.77;2362946;83;30730;-77
2021/10/26 02:16:08;;;;;;;17.93;10.93;;;;;;;12.04;46.08;100585.41;2363020;83;29126;-78
2021/10/26 02:19:29;;;;;;;20.08;13.30;;;;;;;12.03;46.09;100583.66;2362516;83;25804;-77
2021/10/26 02:22:50;;;;;;;20.27;12.33;;;;;;;12.00;46.08;100575.75;2362466;82;25602;-76
2021/10/26 02:26:12;;;;;;;16.15;11.28;;;;;;;11.99;46.10;100580.52;2362619;83;26244;-77
2021/10/26 02:29:35;;;;;;;17.17;10.90;;;;;;;11.98;46.14;100577.47;2361762;83;25689;-76
2021/10/26 02:32:58;;;;;;;18.77;11.93;;;;;;;11.98;46.15;100585.30;2362113;83;25756;-75
2021/10/26 02:36:19;;;;;;;25.23;10.75;;;;;;;11.96;46.17;100580.45;2363074;83;31048;-77
2021/10/26 02:39:41;;;;;;;18.20;11.05;;;;;;;11.96;46.20;100583.50;2362179;83;25189;-77
2021/10/26 02:43:02;;;;;;;17.57;10.43;;;;;;;11.94;46.23;100576.05;2362648;83;25397;-77
2021/10/26 02:46:25;;;;;;;18.10;11.10;;;;;;;11.92;46.23;100571.23;2361062;83;25641;-77
2021/10/26 02:49:46;;;;;;;16.60;10.60;;;;;;;11.90;46.27;100571.61;2358824;83;25926;-79
2021/10/26 02:53:15;;;;;;;15.93;10.03;;;;;;;11.89;46.25;100571.16;2359552;82;30556;-78
2021/10/26 02:56:43;;;;;;;;;;;;;;;11.87;46.29;100568.92;2312113;83;26167;-79
2021/10/26 03:00:46;;;;;;;21.57;10.55;;;;;;;11.86;46.32;100570.66;2355851;82;25836;-79
2021/10/26 03:04:07;;;;;;;15.13;10.08;;;;;;;11.85;46.35;100573.26;2357502;83;25713;-76
2021/10/26 03:07:28;;;;;;;18.85;11.48;;;;;;;11.82;46.35;100573.60;2361363;83;25735;-78
2021/10/26 03:10:50;;;;;;;14.95;10.23;;;;;;;11.80;46.37;100576.59;2360837;82;25645;-79
2021/10/26 03:14:13;;;;;;;17.65;10.35;;;;;;;11.80;46.41;100577.02;2361328;82;25672;-78
2021/10/26 03:17:34;;;;;;;14.78;9.20;;;;;;;11.78;46.42;100576.13;2361281;83;25686;-78
2021/10/26 03:21:15;;;;;;;17.50;9.78;;;;;;;11.77;46.49;100583.05;2361396;82;25553;-78
2021/10/26 03:24:37;;;;;;;21.10;10.82;;;;;;;11.75;46.48;100575.63;2362874;83;26210;-79
2021/10/26 03:27:59;;;;;;;20.90;10.40;;;;;;;11.74;46.49;100562.09;2361936;83;25732;-78
2021/10/26 03:31:25;;;;;;;15.90;9.10;;;;;;;11.74;46.51;100569.05;2361306;83;25669;-78
2021/10/26 03:34:45;;;;;;;17.48;10.40;;;;;;;11.73;46.49;100571.21;2357572;82;25677;-78
2021/10/26 03:38:07;;;;;;;17.07;9.55;;;;;;;11.72;46.52;100569.45;2358853;83;25686;-79
2021/10/26 03:41:28;;;;;;;20.80;10.43;;;;;;;11.71;46.54;100573.80;2361728;82;25644;-77
2021/10/26 03:44:51;;;;;;;14.25;9.95;;;;;;;11.70;46.51;100573.75;2361652;83;25644;-77
2021/10/26 03:48:13;;;;;;;13.00;8.03;;;;;;;11.68;46.57;100580.27;2361092;83;25771;-77
2021/10/26 03:51:35;;;;;;;14.85;9.75;;;;;;;11.67;46.56;100581.09;2361231;82;25658;-77
2021/10/26 03:54:56;;;;;;;14.33;9.30;;;;;;;11.66;46.56;100579.77;2358921;83;25741;-78
2021/10/26 03:58:21;;;;;;;15.83;9.73;;;;;;;11.64;46.58;100578.41;2359661;82;25650;-77
2021/10/26 04:01:45;;;;;;;15.30;9.85;;;;;;;11.64;46.60;100577.53;2365540;82;25927;-78
2021/10/26 04:05:17;;;;;;;15.95;9.75;;;;;;;11.61;46.66;100574.45;2364694;83;25649;-76
2021/10/26 04:08:54;;;;;;;18.70;10.65;;;;;;;11.60;46.67;100568.75;2361543;82;25940;-77
2021/10/26 04:12:26;;;;;;;18.55;10.45;;;;;;;11.59;46.70;100570.91;2367462;82;25744;-78
2021/10/26 04:15:49;;;;;;;14.65;9.65;;;;;;;11.58;46.72;100573.95;2368904;82;26256;-75
2021/10/26 04:19:11;;;;;;;15.68;8.73;;;;;;;11.55;46.72;100564.73;2366925;83;25688;-78
2021/10/26 04:22:33;;;;;;;17.87;8.60;;;;;;;11.55;46.73;100559.95;2366758;82;25764;-77
2021/10/26 04:25:55;;;;;;;14.68;8.50;;;;;;;11.54;46.75;100560.77;2369393;83;30850;-77
2021/10/26 04:29:18;;;;;;;15.65;8.98;;;;;;;11.53;46.78;100559.02;2347664;82;25753;-78
2021/10/26 04:32:39;;;;;;;15.35;9.20;;;;;;;11.53;46.78;100555.09;2367635;82;30951;-78
2021/10/26 04:36:03;;;;;;;14.33;9.68;;;;;;;11.52;46.81;100554.22;2365210;83;26319;-78
2021/10/26 04:39:24;;;;;;;12.53;9.23;;;;;;;11.52;46.81;100546.81;2367247;83;25621;-78
2021/10/26 04:42:54;;;;;;;16.67;9.10;;;;;;;11.51;46.82;100553.77;2369947;80;30894;-79
2021/10/26 04:46:15;;;;;;;14.50;8.88;;;;;;;11.50;46.84;100550.68;2422962;80;25718;-77
2021/10/26 04:49:39;;;;;;;15.48;8.78;;;;;;;11.49;46.82;100542.83;2421059;80;30667;-78
2021/10/26 04:53:00;;;;;;;13.88;9.03;;;;;;;11.49;46.87;100541.09;2423880;80;25729;-78
2021/10/26 04:56:53;;;;;;;17.45;9.70;;;;;;;11.49;46.86;100541.09;2376474;81;25573;-77
2021/10/26 05:00:30;;;;;;;16.05;8.15;;;;;;;11.48;46.90;100538.04;2368013;82;25712;-77
2021/10/26 05:03:57;;;;;;;14.50;8.75;;;;;;;11.47;46.89;100543.20;2370061;83;25635;-78
2021/10/26 05:07:34;;;;;;;18.12;9.10;;;;;;;11.46;46.88;100536.23;2367000;83;26209;-78
2021/10/26 05:11:00;;;;;;;19.80;8.43;;;;;;;11.46;46.88;100537.11;2369066;83;25636;-77
2021/10/26 05:14:25;;;;;;;12.47;8.25;;;;;;;11.44;46.90;100536.21;2361991;83;25964;-78
2021/10/26 05:18:13;;;;;;;16.80;8.65;;;;;;;11.49;46.90;100540.22;2367201;83;25264;-79
2021/10/26 05:21:41;;;;;;;17.25;8.33;;;;;;;11.48;46.92;100544.99;2345900;81;25816;-78
2021/10/26 05:25:04;;;;;;;13.35;7.72;;;;;;;11.47;46.92;100548.42;2341753;83;25704;-81
2021/10/26 05:28:27;;;;;;;14.05;8.00;;;;;;;11.48;46.92;100543.69;2365307;82;26002;-81
2021/10/26 05:31:54;;;;;;;14.93;9.20;;;;;;;11.48;46.94;100546.30;2379641;83;28991;-80
2021/10/26 05:35:15;;;;;;;15.48;8.33;;;;;;;11.48;46.95;100553.70;2379473;81;25727;-78
2021/10/26 05:38:36;;;;;;;11.50;7.70;;;;;;;11.48;46.95;100549.78;2379979;83;25687;-77
2021/10/26 05:41:57;;;;;;;10.78;7.65;;;;;;;11.50;46.96;100558.52;2379040;81;30920;-77
2021/10/26 05:45:20;;;;;;;15.15;7.70;;;;;;;11.52;46.90;100558.14;2378583;83;25766;-77
2021/10/26 05:48:40;;;;;;;10.53;7.58;;;;;;;11.54;46.95;100552.54;2378117;81;25708;-76
2021/10/26 05:52:01;;;;;;;13.30;8.00;;;;;;;11.57;46.95;100558.23;2379972;81;30174;-78
2021/10/26 05:55:25;;;;;;;14.60;7.62;;;;;;;11.61;46.92;100555.27;2377587;83;25771;-78
2021/10/26 05:58:46;;;;;;;11.45;7.10;;;;;;;11.63;46.90;100559.67;2378717;83;25708;-77
2021/10/26 06:02:07;;;;;;;10.88;7.53;;;;;;;11.68;46.88;100558.49;2397450;81;29587;-78
2021/10/26 06:05:28;;;;;;;20.30;7.75;;;;;;;11.72;46.87;100564.23;2365816;82;25606;-76
2021/10/26 06:08:52;;;;;;;12.07;8.05;;;;;;;11.76;46.86;100565.63;2325629;85;25698;-76
2021/10/26 06:12:18;;;;;;;14.75;7.85;;;;;;;11.81;46.80;100564.41;2326008;84;25894;-78
2021/10/26 06:15:35;;;;;;;14.98;7.95;;;;;;;11.86;46.83;100566.75;2325060;84;25634;-76
2021/10/26 06:19:23;;;;;;;11.03;7.30;;;;;;;11.92;46.77;100573.41;2323325;83;29301;-79
2021/10/26 06:22:45;;;;;;;12.28;7.75;;;;;;;11.96;46.77;100575.66;2321851;83;26014;-77
2021/10/26 06:26:44;;;;;;;12.28;7.50;;;;;;;12.02;46.79;100584.52;2319286;85;25744;-77
2021/10/26 06:30:09;;;;;;;13.48;8.90;;;;;;;12.10;46.85;100577.25;2301338;85;26300;-78
2021/10/26 06:33:35;;;;;;;12.00;7.45;;;;;;;12.16;46.85;100579.56;2308700;82;25671;-78
2021/10/26 06:36:57;;;;;;;14.83;8.33;;;;;;;12.24;46.83;100575.36;2303649;85;25816;-76
2021/10/26 06:40:19;;;;;;;14.15;8.00;;;;;;;12.33;46.78;100578.59;2324654;85;25879;-77
2021/10/26 06:43:42;;;;;;;11.45;7.35;;;;;;;12.41;46.82;100583.53;2304620;85;25666;-78
2021/10/26 06:47:22;;;;;;;13.05;8.05;;;;;;;12.50;46.80;100581.10;2285381;86;25859;-77
2021/10/26 06:51:01;;;;;;;10.68;7.65;;;;;;;12.63;46.69;100586.14;2321970;85;25790;-74
2021/10/26 06:54:40;;;;;;;14.13;9.10;;;;;;;12.74;46.47;100593.75;2305484;84;25233;-75
2021/10/26 06:58:20;;;;;;;19.17;9.35;;;;;;;12.81;46.89;100603.90;2317198;85;25716;-77
2021/10/26 07:02:01;;;;;;;17.00;8.20;;;;;;;12.89;47.24;100598.39;2291212;85;25739;-76
2021/10/26 07:05:25;;;;;;;13.68;8.70;;;;;;;12.97;47.26;100595.47;2312661;82;25797;-76
2021/10/26 07:09:03;;;;;;;17.80;8.53;;;;;;;13.05;47.20;100594.28;2290383;84;25750;-75
2021/10/26 07:12:35;;;;;;;21.17;8.65;;;;;;;13.11;46.92;100596.13;2273691;85;25658;-76
2021/10/26 07:15:56;;;;;;;23.07;8.50;;;;;;;13.17;46.81;100598.42;2281702;86;25660;-75
2021/10/26 07:19:18;;;;;;;17.77;9.23;;;;;;;13.30;46.78;100599.98;2281321;85;25795;-76
2021/10/26 07:22:57;;;;;;;;;;;;;;;13.49;46.76;100607.67;2283330;85;25874;-76
2021/10/26 07:26:36;;;;;;;15.15;8.88;;;;;;;13.65;46.54;100610.98;2281948;86;25737;-76
2021/10/26 07:29:59;;;;;;;18.62;9.85;;;;;;;13.78;46.23;100605.50;2280850;85;25757;-76
2021/10/26 07:33:25;;;;;;;23.45;9.93;;;;;;;13.93;45.95;100607.88;2281989;85;25730;-77
2021/10/26 07:36:47;;;;;;;26.77;9.28;;;;;;;14.13;45.65;100601.59;2281697;86;25770;-75
2021/10/26 07:40:15;;;;;;;20.37;10.10;;;;;;;14.39;45.09;100593.16;2281764;85;25273;-75
2021/10/26 07:43:54;;;;;;;28.27;10.63;;;;;;;14.96;44.73;100597.72;2274963;85;25821;-74
2021/10/26 07:47:36;;;;;;;20.70;10.13;;;;;;;16.90;42.91;100591.32;2273703;85;25545;-76
2021/10/26 07:50:59;;;;;;;11.63;8.63;;;;;;;17.93;41.24;100595.66;2291052;85;25697;-74
2021/10/26 07:54:20;;;;;;;16.20;9.65;;;;;;;18.44;40.12;100586.65;2288220;86;25718;-75
2021/10/26 07:57:42;;;;;;;16.90;9.40;;;;;;;19.30;39.26;100592.22;2288949;85;25884;-76
2021/10/26 08:01:06;;;;;;;16.70;9.00;;;;;;;20.33;37.98;100591.14;2302440;85;25669;-76
2021/10/26 08:04:43;;;;;;;15.00;9.23;;;;;;;20.57;37.00;100585.98;2318552;85;25689;-75
2021/10/26 08:08:12;;;;;;;8.85;7.95;;;;;;;21.03;36.38;100591.48;2317770;85;25685;-74
2021/10/26 08:11:35;;;;;;;19.37;10.30;;;;;;;21.71;35.59;100598.30;2301007;85;25594;-75
2021/10/26 08:14:56;;;;;;;15.18;8.60;;;;;;;22.37;34.89;100604.50;2318618;85;25621;-76
2021/10/26 08:18:20;;;;;;;13.95;7.53;;;;;;;23.10;33.95;100608.16;2311720;84;25667;-76
2021/10/26 08:21:42;;;;;;;7.92;7.03;;;;;;;23.58;33.24;100595.84;2298735;85;25721;-76
2021/10/26 08:25:09;;;;;;;8.53;6.97;;;;;;;23.76;32.53;100595.86;2317717;85;25661;-76
2021/10/26 08:28:27;;;;;;;7.70;6.90;;;;;;;23.93;32.18;100603.37;2318205;85;25736;-78
2021/10/26 08:32:10;;;;;;;8.55;6.83;;;;;;;24.23;31.84;100602.06;2318077;85;25658;-78
2021/10/26 08:35:28;;;;;;;7.15;5.87;;;;;;;24.88;31.39;100599.69;2321663;82;25449;-78
2021/10/26 08:38:49;;;;;;;10.13;5.72;;;;;;;25.33;30.90;100605.32;2368073;82;25626;-78
2021/10/26 08:42:14;;;;;;;6.95;6.25;;;;;;;25.40;30.22;100610.86;2357599;83;25654;-75
2021/10/26 08:45:47;;;;;;;6.42;5.83;;;;;;;25.36;30.06;100600.34;2354713;83;25655;-75
2021/10/26 08:49:06;;;;;;;7.00;5.50;;;;;;;25.24;30.04;100598.08;2346765;83;25736;-75
2021/10/26 08:52:49;;;;;;;6.03;5.20;;;;;;;25.01;30.04;100600.14;2289980;84;25593;-77
2021/10/26 08:56:17;;;;;;;8.40;6.08;;;;;;;24.87;29.96;100595.25;2303765;85;25685;-74
2021/10/26 09:00:05;;;;;;;10.40;5.78;;;;;;;25.10;30.00;100590.05;2285524;85;43525;-75
2021/10/26 09:03:29;;;;;;;9.53;5.25;;;;;;;25.43;29.89;100593.88;2260655;86;25688;-74
2021/10/26 09:06:54;;;;;;;6.62;5.60;;;;;;;25.43;29.60;100596.08;2261004;86;30981;-74
2021/10/26 09:10:16;;;;;;;7.33;5.22;;;;;;;25.15;29.80;100591.28;2318386;83;25594;-77
2021/10/26 09:17:41;;;;;;;6.22;4.95;;;;;;;25.05;30.28;100577.80;2314408;82;25869;-73
2021/10/26 09:21:31;;;;;;;6.03;4.78;;;;;;;25.32;30.63;100586.70;2245715;86;25798;-77
2021/10/26 09:25:12;;;;;;;4.67;4.28;;;;;;;25.36;30.47;100587.88;2311845;82;25784;-77
2021/10/26 09:28:33;;;;;;;5.28;4.60;;;;;;;25.36;30.41;100593.20;2281337;86;25956;-74
2021/10/26 09:32:21;;;;;;;11.38;4.70;;;;;;;25.42;30.35;100594.81;2282716;85;26197;-74
2021/10/26 09:35:42;;;;;;;6.20;4.23;;;;;;;25.50;30.07;100580.72;2285880;85;25819;-75
2021/10/26 09:39:11;;;;;;;7.70;4.33;;;;;;;25.78;29.69;100581.94;2286618;85;25790;-77
2021/10/26 09:42:44;;;;;;;5.45;4.85;;;;;;;26.29;29.30;100586.33;2305527;84;25882;-76
2021/10/26 09:46:05;;;;;;;6.62;4.72;;;;;;;26.45;28.99;100592.41;2299039;85;25715;-76
2021/10/26 09:49:39;;;;;;;6.03;4.65;;;;;;;26.45;28.97;100582.58;2275126;85;25681;-80
2021/10/26 09:53:35;;;;;;;19.98;4.70;;;;;;;26.59;29.18;100590.09;2266602;87;25628;-80
2021/10/26 09:57:08;;;;;;;11.22;5.37;;;;;;;26.35;28.48;100590.55;2267628;85;25723;-81
2021/10/26 10:00:39;;;;;;;12.50;5.97;;;;;;;25.96;27.64;100591.13;2285209;83;25724;-79
2021/10/26 10:04:22;;;;;;;9.45;5.65;;;;;;;25.39;28.11;100578.89;2303715;84;25962;-88
2021/10/26 10:08:28;;;;;;;6.30;5.00;;;;;;;24.69;27.17;100588.72;2301117;83;25618;-85
2021/10/26 10:12:08;;;;;;;11.97;5.95;;;;;;;23.51;27.12;100582.28;2300787;84;25675;-81
2021/10/26 10:17:16;;;;;;;13.38;6.42;;;;;;;23.08;29.96;100574.53;2500324;77;25415;-80
2021/10/26 10:20:40;;;;;;;7.58;5.33;;;;;;;23.39;28.15;100562.67;2413987;80;26357;-81
2021/10/26 10:24:05;;;;;;;7.50;4.70;;;;;;;23.18;28.85;100563.21;2410778;81;25752;-84
2021/10/26 10:27:34;;;;;;;14.18;6.33;;;;;;;23.66;29.37;100549.08;2411552;81;25933;-78
2021/10/26 10:31:00;;;;;;;8.55;4.75;;;;;;;23.67;28.00;100550.81;2398479;81;31329;-77
2021/10/26 10:34:42;;;;;;;11.00;4.85;;;;;;;23.14;27.71;100549.58;2397337;80;25222;-79
2021/10/26 10:38:18;;;;;;;10.18;4.85;;;;;;;21.88;27.56;100537.80;2392399;81;25617;-81
2021/10/26 10:41:44;;;;;;;13.05;4.03;;;;;;;20.41;28.71;100550.41;2400804;81;25675;-79
2021/10/26 10:45:33;;;;;;;9.43;4.95;;;;;;;19.25;29.81;100541.17;2418004;80;25793;-78
2021/10/26 10:49:24;;;;;;;10.47;5.20;;;;;;;18.86;30.77;100551.17;2369660;81;25570;-78
2021/10/26 10:52:47;;;;;;;8.35;4.65;;;;;;;18.32;31.76;100540.06;2401809;81;25612;-79
2021/10/26 10:56:20;;;;;;;8.68;5.10;;;;;;;17.98;32.29;100538.91;2399827;81;25653;-79
2021/10/26 10:59:52;;;;;;;7.58;4.92;;;;;;;17.68;32.80;100536.81;2406970;81;25741;-78
2021/10/26 11:03:33;;;;;;;9.25;5.28;;;;;;;17.39;33.35;100529.41;2400297;81;25930;-78
2021/10/26 11:06:56;;;;;;;11.97;5.25;;;;;;;17.26;33.89;100515.81;2401683;81;25673;-76
2021/10/26 11:10:20;;;;;;;8.35;5.50;;;;;;;17.53;34.03;100521.02;2403710;82;25690;-76
2021/10/26 11:13:41;;;;;;;5.12;4.62;;;;;;;17.79;34.42;100513.06;2398973;81;25688;-76
2021/10/26 11:17:04;;;;;;;9.48;5.30;;;;;;;18.15;34.25;100518.59;2400895;81;25883;-76
2021/10/26 11:20:37;;;;;;;5.87;4.87;;;;;;;18.35;33.70;100513.20;2367219;82;25757;-76
2021/10/26 11:24:09;;;;;;;10.82;5.08;;;;;;;18.46;33.86;100511.84;2404552;82;25655;-84
2021/10/26 11:27:34;;;;;;;5.97;4.92;;;;;;;18.49;33.39;100506.52;2396654;81;25549;-74
2021/10/26 11:31:01;;;;;;;6.67;4.28;;;;;;;18.16;33.49;100507.17;2401686;81;25606;-74
2021/10/26 11:34:27;;;;;;;8.90;6.50;;;;;;;18.24;34.21;100503.16;2424454;81;25224;-75
2021/10/26 11:38:10;;;;;;;12.88;5.95;;;;;;;18.49;33.97;100495.95;2423195;81;25645;-75
2021/10/26 11:41:47;;;;;;;9.48;5.35;;;;;;;18.72;33.88;100506.38;2424007;81;25778;-75
2021/10/26 11:45:08;;;;;;;10.63;5.42;;;;;;;18.69;33.23;100503.73;2422868;81;25626;-77
2021/10/26 11:48:43;;;;;;;8.73;5.03;;;;;;;18.88;33.42;100512.43;2405514;81;25634;-75
2021/10/26 11:52:06;;;;;;;12.73;6.17;;;;;;;18.93;33.79;100506.64;2424554;81;25743;-76
2021/10/26 11:55:29;;;;;;;9.60;5.20;;;;;;;19.09;33.44;100495.50;2423851;81;25791;-75
2021/10/26 11:59:13;;;;;;;12.18;7.75;;;;;;;19.03;33.10;100496.88;2424531;81;25673;-76
2021/10/26 12:02:39;;;;;;;10.03;5.33;;;;;;;18.93;33.00;100500.05;2422865;81;25684;-74
2021/10/26 12:06:04;;;;;;;9.38;6.05;;;;;;;18.79;33.05;100484.31;2378937;80;25179;-76
2021/10/26 12:09:41;;;;;;;11.95;5.00;;;;;;;18.60;33.10;100484.89;2468898;80;26122;-79
2021/10/26 12:13:08;;;;;;;6.95;5.30;;;;;;;18.25;33.18;100474.56;2362003;83;25625;-78
2021/10/26 12:16:29;;;;;;;7.05;4.90;;;;;;;17.85;33.61;100487.09;2301629;83;25824;-74
2021/10/26 12:20:06;;;;;;;7.00;4.50;;;;;;;17.49;34.71;100473.59;2346188;83;25670;-75
2021/10/26 12:23:31;;;;;;;11.18;5.22;;;;;;;17.49;34.71;100473.59;2357089;83;25682;-77
2021/10/26 12:27:07;;;;;;;8.03;5.08;;;;;;;17.29;34.81;100472.33;2358388;83;25681;-77
2021/10/26 12:30:34;;;;;;;7.03;5.67;;;;;;;17.54;34.73;100466.53;2352907;83;25852;-74
2021/10/26 12:34:02;;;;;;;11.97;5.08;;;;;;;17.54;34.91;100468.73;2356849;83;25749;-74
2021/10/26 12:37:38;;;;;;;9.73;5.78;;;;;;;17.65;35.01;100470.00;2345166;83;25772;-76
2021/10/26 12:41:02;;;;;;;6.80;5.10;;;;;;;17.80;35.55;100474.38;2356073;83;25997;-76
2021/10/26 12:44:28;;;;;;;6.60;4.83;;;;;;;17.83;34.81;100464.70;2355243;83;25727;-77
2021/10/26 12:47:59;;;;;;;8.00;4.85;;;;;;;17.52;34.98;100457.33;2340747;81;25577;-77
2021/10/26 12:51:27;;;;;;;16.52;5.67;;;;;;;17.39;35.20;100456.48;2331116;83;26334;-77
2021/10/26 12:54:52;;;;;;;11.45;5.20;;;;;;;17.22;35.56;100456.98;2332857;84;25616;-77
2021/10/26 12:58:40;;;;;;;11.88;5.35;;;;;;;17.19;35.78;100455.66;2333768;84;25325;-77
2021/10/26 13:02:08;;;;;;;16.70;5.97;;;;;;;17.00;36.18;100449.54;2336762;83;25800;-74
2021/10/26 13:05:31;;;;;;;7.28;5.62;;;;;;;16.69;36.78;100448.22;2337089;83;25486;-75
2021/10/26 13:08:52;;;;;;;11.75;5.33;;;;;;;17.12;37.03;100449.98;2336977;84;25670;-72
2021/10/26 13:12:21;;;;;;;11.40;5.80;;;;;;;17.58;36.90;100448.50;2392592;81;25715;-75
2021/10/26 13:15:44;;;;;;;7.70;5.28;;;;;;;17.88;36.61;100456.30;2319768;82;25686;-72
2021/10/26 13:23:29;;;;;;;9.10;4.50;;;;;;;18.31;36.34;100450.77;2339581;82;25642;-73
2021/10/26 13:26:51;;;;;;;12.82;5.15;;;;;;;18.45;36.25;100449.35;2342327;84;26087;-75
2021/10/26 13:30:17;;;;;;;6.78;4.45;;;;;;;18.59;36.31;100462.44;2332372;82;25678;-75
2021/10/26 13:33:43;;;;;;;11.35;4.40;;;;;;;18.68;36.29;100454.91;2303654;84;25550;-74
2021/10/26 13:37:04;;;;;;;12.80;5.25;;;;;;;18.82;36.80;100447.31;2320100;84;25763;-73
2021/10/26 13:40:25;;;;;;;6.17;4.72;;;;;;;18.93;36.70;100446.34;2320609;85;25541;-73
2021/10/26 13:43:50;;;;;;;5.03;4.53;;;;;;;18.99;36.87;100453.76;2333886;84;25675;-73
2021/10/26 13:47:11;;;;;;;7.20;4.30;;;;;;;19.03;36.88;100454.15;2356293;83;25275;-72
2021/10/26 13:50:32;;;;;;;8.93;4.25;;;;;;;19.05;37.00;100447.55;2354519;83;25674;-74
2021/10/26 13:53:53;;;;;;;4.97;3.87;;;;;;;19.04;37.05;100452.41;2322430;82;30837;-79
2021/10/26 13:57:14;;;;;;;4.70;3.47;;;;;;;19.03;37.18;100464.72;2314372;84;25699;-79
2021/10/26 14:00:39;;;;;;;8.93;4.30;;;;;;;19.03;37.30;100457.24;2341622;82;25205;-79
2021/10/26 14:04:00;;;;;;;5.28;4.30;;;;;;;19.03;37.35;100467.81;2397179;82;25620;-80
2021/10/26 14:07:21;;;;;;;9.60;4.50;;;;;;;19.03;37.45;100458.56;2393916;82;30931;-79
2021/10/26 14:10:43;;;;;;;4.92;4.12;;;;;;;19.02;37.55;100462.11;2398033;82;30869;-80
2021/10/26 14:14:07;;;;;;;5.90;3.83;;;;;;;18.97;37.66;100446.31;2393281;82;25666;-78
2021/10/26 14:17:29;;;;;;;4.45;3.90;;;;;;;18.93;37.76;100450.30;2387859;82;25652;-77
2021/10/26 14:20:54;;;;;;;7.03;4.20;;;;;;;18.90;37.92;100455.19;2382088;82;25929;-79
2021/10/26 14:24:32;;;;;;;6.87;4.55;;;;;;;18.88;38.08;100462.23;2384068;82;25641;-79
2021/10/26 14:27:56;;;;;;;8.35;4.20;;;;;;;18.88;38.22;100468.39;2372915;82;25684;-80
2021/10/26 14:34:46;;;;;;;7.97;4.30;;;;;;;18.77;38.60;100477.31;2284774;85;25721;-80
2021/10/26 14:59:24;;;;;;;5.83;4.47;;;;;;;18.25;39.73;100477.65;2267910;85;25732;-80
2021/10/26 15:02:45;;;;;;;8.85;5.12;;;;;;;18.17;39.87;100469.34;2288661;85;26383;-80
2021/10/26 15:06:13;;;;;;;10.05;5.50;;;;;;;18.10;40.01;100467.63;2268447;87;30921;-79
2021/10/26 15:09:44;;;;;;;8.70;4.97;;;;;;;18.03;40.18;100467.23;2265937;86;26508;-77
2021/10/26 15:13:11;;;;;;;6.33;5.25;;;;;;;17.96;40.33;100475.20;2267778;87;25744;-79
2021/10/26 15:16:23;;;;;;;5.95;5.33;;;;;;;17.88;40.50;100472.13;2295638;84;26038;-79
2021/10/26 15:19:47;;;;;;;10.32;5.92;;;;;;;17.82;40.64;100476.14;2323895;85;30914;-78
2021/10/26 15:23:11;;;;;;;6.28;5.50;;;;;;;17.76;40.79;100478.80;2303993;85;25911;-77
2021/10/26 15:33:38;;;;;;;6.25;5.50;;;;;;;17.57;41.19;100476.63;2265322;86;25731;-80
2021/10/26 15:36:59;;;;;;;11.15;6.50;;;;;;;17.51;41.31;100489.81;2286509;83;25804;-79
2021/10/26 15:40:21;;;;;;;10.13;6.00;;;;;;;17.45;41.44;100493.38;2337067;84;30840;-79
2021/10/26 15:43:43;;;;;;;8.78;5.85;;;;;;;17.41;41.56;100489.41;2337432;83;25661;-80
2021/10/26 15:47:04;;;;;;;13.72;6.72;;;;;;;17.37;41.68;100499.08;2337109;84;25804;-81
2021/10/26 15:50:33;;;;;;;8.85;6.12;;;;;;;17.34;41.76;100491.63;2334781;84;30899;-79
2021/10/26 15:53:55;;;;;;;7.25;5.42;;;;;;;17.28;41.92;100491.22;2333098;84;25710;-80
2021/10/26 15:57:22;;;;;;;11.65;6.65;;;;;;;17.23;42.04;100503.06;2332049;83;25227;-79
2021/10/26 16:00:47;;;;;;;7.15;6.33;;;;;;;17.18;42.19;100495.63;2345744;83;25687;-78
2021/10/26 16:04:08;;;;;;;9.93;6.35;;;;;;;17.15;42.28;100501.34;2321222;83;25576;-81
2021/10/26 16:07:32;;;;;;;13.28;6.60;;;;;;;17.11;42.44;100503.52;2321905;85;31370;-80
2021/10/26 16:11:05;;;;;;;8.98;6.00;;;;;;;17.07;42.52;100504.41;2321097;85;25734;-80
2021/10/26 16:14:30;;;;;;;9.00;6.15;;;;;;;17.01;42.65;100493.45;2320553;85;25687;-80
2021/10/26 16:17:52;;;;;;;7.00;5.90;;;;;;;16.99;42.71;100497.84;2305843;84;25770;-81
2021/10/26 16:21:24;;;;;;;;;;;;;;;;;;;;;
2021/10/26 16:24:37;;;;;;;9.90;6.75;;;;;;;16.93;42.89;100497.84;2233775;85;25773;-80
2021/10/26 16:27:58;;;;;;;9.10;6.92;;;;;;;16.89;42.97;100497.41;2221942;88;30869;-81
2021/10/26 16:31:19;;;;;;;12.27;7.60;;;;;;;16.82;43.20;100493.02;2211522;88;26263;-81
2021/10/26 16:34:40;;;;;;;12.07;6.50;;;;;;;16.82;43.12;100501.80;2216850;88;25745;-80